<?xml version="1.0" encoding="UTF-8" standalone="no" ?>
<gpx xmlns="http://www.topografix.com/GPX/1/1" xmlns:xsi="http://www.w3.org/2001/XMLSchema-instance" xsi:schemaLocation="http://www.topografix.com/GPX/1/1 http://www.topografix.com/GPX/1/1/gpx.xsd" version="1.1" creator="VisuGPX - https://www.visugpx.com">
  <metadata>
    <name>Neuvicoise 2024</name>
    <desc><![CDATA[Parcours créé sur Trace de Trail]]></desc>
  </metadata>
  <trk>
    <name><![CDATA[retour rando 15 km]]></name>
    <extensions>
      <line xmlns="http://www.topografix.com/GPX/gpx_style/0/2">
        <color>FFFF00</color>
        <width>4</width>
      </line>
    </extensions>
    <trkseg>
      <trkpt lat="45.41027" lon="2.28468">
        <ele>605</ele>
        <time>2024-09-13T05:36:47+00:00</time>
      </trkpt>
      <trkpt lat="45.40995" lon="2.28461">
        <ele>605</ele>
        <time>2024-09-13T05:36:50+00:00</time>
      </trkpt>
      <trkpt lat="45.40962" lon="2.28455">
        <ele>602</ele>
        <time>2024-09-13T05:36:53+00:00</time>
      </trkpt>
      <trkpt lat="45.40923" lon="2.28446">
        <ele>604</ele>
        <time>2024-09-13T05:36:56+00:00</time>
      </trkpt>
      <trkpt lat="45.40894" lon="2.28434">
        <ele>602</ele>
        <time>2024-09-13T05:36:59+00:00</time>
      </trkpt>
      <trkpt lat="45.4087" lon="2.28411">
        <ele>603</ele>
        <time>2024-09-13T05:37:02+00:00</time>
      </trkpt>
      <trkpt lat="45.40853" lon="2.28383">
        <ele>601</ele>
        <time>2024-09-13T05:37:05+00:00</time>
      </trkpt>
      <trkpt lat="45.40839" lon="2.28348">
        <ele>600</ele>
        <time>2024-09-13T05:37:08+00:00</time>
      </trkpt>
      <trkpt lat="45.40825" lon="2.28324">
        <ele>600</ele>
        <time>2024-09-13T05:37:11+00:00</time>
      </trkpt>
      <trkpt lat="45.40807" lon="2.28304">
        <ele>594</ele>
        <time>2024-09-13T05:37:14+00:00</time>
      </trkpt>
      <trkpt lat="45.40787" lon="2.28292">
        <ele>595</ele>
        <time>2024-09-13T05:37:17+00:00</time>
      </trkpt>
      <trkpt lat="45.4075" lon="2.28275">
        <ele>597</ele>
        <time>2024-09-13T05:37:20+00:00</time>
      </trkpt>
      <trkpt lat="45.40712" lon="2.28258">
        <ele>599</ele>
        <time>2024-09-13T05:37:23+00:00</time>
      </trkpt>
      <trkpt lat="45.40675" lon="2.28241">
        <ele>601</ele>
        <time>2024-09-13T05:37:26+00:00</time>
      </trkpt>
      <trkpt lat="45.40637" lon="2.28224">
        <ele>598</ele>
        <time>2024-09-13T05:37:29+00:00</time>
      </trkpt>
      <trkpt lat="45.406" lon="2.28207">
        <ele>596</ele>
        <time>2024-09-13T05:37:32+00:00</time>
      </trkpt>
      <trkpt lat="45.40561" lon="2.2819">
        <ele>596</ele>
        <time>2024-09-13T05:37:35+00:00</time>
      </trkpt>
      <trkpt lat="45.40505" lon="2.28239">
        <ele>594</ele>
        <time>2024-09-13T05:37:38+00:00</time>
      </trkpt>
      <trkpt lat="45.40473" lon="2.28246">
        <ele>597</ele>
        <time>2024-09-13T05:37:41+00:00</time>
      </trkpt>
      <trkpt lat="45.40442" lon="2.28253">
        <ele>598</ele>
        <time>2024-09-13T05:37:44+00:00</time>
      </trkpt>
      <trkpt lat="45.40411" lon="2.28261">
        <ele>599</ele>
        <time>2024-09-13T05:37:47+00:00</time>
      </trkpt>
      <trkpt lat="45.40392" lon="2.28296">
        <ele>600</ele>
        <time>2024-09-13T05:37:50+00:00</time>
      </trkpt>
      <trkpt lat="45.40377" lon="2.28327">
        <ele>601</ele>
        <time>2024-09-13T05:37:53+00:00</time>
      </trkpt>
      <trkpt lat="45.40356" lon="2.28367">
        <ele>603</ele>
        <time>2024-09-13T05:37:56+00:00</time>
      </trkpt>
      <trkpt lat="45.4033" lon="2.2835">
        <ele>605</ele>
        <time>2024-09-13T05:37:59+00:00</time>
      </trkpt>
      <trkpt lat="45.40287" lon="2.28323">
        <ele>608</ele>
        <time>2024-09-13T05:38:02+00:00</time>
      </trkpt>
      <trkpt lat="45.4027" lon="2.28277">
        <ele>609</ele>
        <time>2024-09-13T05:38:05+00:00</time>
      </trkpt>
      <trkpt lat="45.40253" lon="2.28232">
        <ele>607</ele>
        <time>2024-09-13T05:38:08+00:00</time>
      </trkpt>
      <trkpt lat="45.40236" lon="2.28186">
        <ele>605</ele>
        <time>2024-09-13T05:38:11+00:00</time>
      </trkpt>
      <trkpt lat="45.40216" lon="2.2813">
        <ele>603</ele>
        <time>2024-09-13T05:38:14+00:00</time>
      </trkpt>
    </trkseg>
  </trk>
</gpx>